Pagrindinis puslapis
METAR-TAF:

METAR-TAF

Oro uostai :

Seinejokis-Ilmajoki, Suomija

platuma: 62-41-37N, ilguma: 022-49-55E, Aukštis: 91 m

Dabartinis oras

Ataskaita buvo paskelbta 43 minutes, ne 12:20 UTC
Vėjas 5 kt iš Rytų/Šiaurės Rytų, svyruoja nuo Šiaurės Rytų ir Rytų/Pietryčių
Temperatūra 9°C
Drėgmė 49%
Slėgis 1029 hPa
Matomumas 10 km arba daugiau
Apsiniaukę ne aukštis 4600 ft

METAR: EFSI 191220Z AUTO 07005KT 040V120 9999 OVC046 09/M01 Q1029

Laikas: 16:03 (13:03 UTC)


TAF: trūkstamas

Orai ataskaitas ir orų prognozės (METAR, TAF).

turimą stotys yra geltonos ir raudonos taškus žemėlapyje.

Perkelti pele per norėdami pamatyti stoties vardą.

Tada spustelėkite, norėdami matyti oro stebėjimo ir prognozės.

Norėdami pakeisti žemėlapį: spustelėkite ant žalios mygtukų su juodo kryžiaus žemyn,; žalią mygtuką su brūkšneliu, jei norite nutolinti; arba žalių rodyklių gretimoms žemėlapius.


METAR-TAF: